K I Sawyer A F B, Michigan
Current Conditions -  °F | °C
As of 4:36 AM on Wednesday 26 Nov 2014 (Local Time) from KSAW Reporting Station
Clear Clear  
Wind Chill: -6°   Ceiling: Unl
Heat Index: -6°   Visibility: 10mi
Dew Point: -10°   Wind: 0mph
Humidity: 80%   Direction: NA
Pressure: 30.1"   Gusts: NA
Location:  46.3289°N, 87.363°W
Report Text: KSAW 260936Z AUTO 00000KT 10SM CLR M21/M23 A3010 RMK AO2 T12091235
Loading
Personal Weather Stations






























Interactive Weather Map New forecast layout! Learn more

10-Day Weather Forecast

Advertisements
Track Severe Weather on mobile